Gullveig — FGH2177 — position and weather

sailwx.info

Track history (hours):
 
Tides and Currents Weather Stations Pressure Air Temp Water Temp Dewpoint Dewpoint Depression Visibility Wind Speed Wind Dir Waves Ship Positions

Gullveig

Last reported at 2017-Aug-19 10:13 UTC. Time now 2017-Oct-20 12:18 UTC.
Position N 47°43' W 003°32'.
Warning: this ship's position is months out of date.

Length 17 m.

Type: Sailing vessel. MMSI: 227073010.

Date/timePositionNaut miles runAvg speedWind from/ knotsBaromVisibWave heightAir tempDewpointWater temp
2017-Aug-19 10:13N 47°43' W 003°32'1 5.8
2017-Aug-19 10:00N 47°42' W 003°31'3 5.6
2017-Aug-19 09:30N 47°40' W 003°29'2 3.9
2017-Aug-19 09:00N 47°40' W 003°26'2 5.0
2017-Aug-19 08:30N 47°42' W 003°23'1 0.1
2017-Aug-18 16:03N 47°43' W 003°22'0 0.4
2017-Aug-18 15:56N 47°43' W 003°22'3 6.0
2017-Aug-18 15:29N 47°41' W 003°24'3 6.2
2017-Aug-18 15:00N 47°41' W 003°29'  
Track history (hours):
 
Tides and Currents Weather Stations Pressure Air Temp Water Temp Dewpoint Dewpoint Depression Visibility Wind Speed Wind Dir Waves Ship Positions

Gullveig

Last reported at 2017-Aug-19 10:13 UTC. Time now 2017-Oct-20 12:18 UTC.
Position N 47°43' W 003°32'.
Warning: this ship's position is months out of date.

Length 17 m.

Type: Sailing vessel. MMSI: 227073010.

Date/timePositionNaut miles runAvg speedWind from/ knotsBaromVisibWave heightAir tempDewpointWater temp
2017-Aug-19 10:13N 47°43' W 003°32'1 5.8
2017-Aug-19 10:00N 47°42' W 003°31'3 5.6
2017-Aug-19 09:30N 47°40' W 003°29'2 3.9
2017-Aug-19 09:00N 47°40' W 003°26'2 5.0
2017-Aug-19 08:30N 47°42' W 003°23'1 0.1
2017-Aug-18 16:03N 47°43' W 003°22'0 0.4
2017-Aug-18 15:56N 47°43' W 003°22'3 6.0
2017-Aug-18 15:29N 47°41' W 003°24'3 6.2
2017-Aug-18 15:00N 47°41' W 003°29'  

Dump ship's entire track history